KHFD/HFD METAR and TAF weather

Enter ICAO airport designator
Station Type Date Time Source
KHFD METAR 2021/07/27 21:53 UTC NOAA

KHFD 272153Z 20009G17KT 8SM FEW065 31/16 A2987 RMK AO2 SLP115 T03060161


Station Type Date Time Source
KHFD Decoded METAR 2021/07/27 21:53 UTC NOAA

HARTFORD-BRAINARD AIRPORT, CT, United States (KHFD) 41-44N 072-39W 4M
Jul 27, 2021 - 05:53 PM EDT / 2021.07.27 2153 UTC
Wind: from the SSW (200 degrees) at 10 MPH (9 KT) gusting to 20 MPH (17 KT):0
Visibility: 8 mile(s):0
Sky conditions: mostly clear
Temperature: 87.1 F (30.6 C)
Dew Point: 61.0 F (16.1 C)
Relative Humidity: 41%
Pressure (altimeter): 29.87 in. Hg (1011 hPa)
ob: KHFD 272153Z 20009G17KT 8SM FEW065 31/16 A2987 RMK AO2 SLP115 T03060161
cycle: 22

Station Type Date Time Source
KHFD TAF UTC NOAA

Error!

Example: see airport list